Latest Weather Observations for Borroloola

IDD60801

Issued at 8:05 pm CST Thursday 24 July 2014 (issued every 30 minutes, with the page automatically refreshed every 10 minutes)

About weather observations | Map of weather stations | Latest weather observations for NT | Other Formats
Station Details ID: 014723 Name: BORROLOOLA AIRPORT Lat: -16.08 Lon: 136.30 Height: 16.1 m
Data from the previous 72 hours. | See also: Recent months at Borroloola
Date/Time
CST
Temp
°C
App
Temp
°C
Dew
Point
Rel
Hum
%
Delta-T
°C
Wind Press
QNH
hPa
Press
MSL
hPa
Rain
since 9 am
mm
Dir
 
Spd
km/h
Gust
km/h
Spd
kts
Gust
kts
24/08:00pm 21.6 21.5 15.9 70 3.4 NNE 11 15 6 8 1015.3 - 0.0
24/07:30pm 22.2 21.8 15.1 64 4.2 NNE 11 13 6 7 1014.8 - 0.0
24/07:00pm 22.9 22.2 14.2 58 5.1 NNE 11 15 6 8 1014.5 - 0.0
24/06:30pm 23.9 22.1 13.4 51 6.1 NNE 15 20 8 11 1014.2 - 0.0
24/06:00pm 25.0 22.7 12.9 47 7.0 NNE 17 24 9 13 1013.7 1013.6 0.0
24/05:30pm 26.2 23.0 11.9 41 8.2 NNE 20 30 11 16 1013.4 - 0.0
24/05:00pm 27.8 24.6 11.4 36 9.4 NNE 19 26 10 14 1013.2 - 0.0
24/04:30pm 28.3 24.9 10.5 33 10.1 NNE 19 26 10 14 1013.0 - 0.0
24/04:00pm 29.0 25.2 9.2 29 11.0 NNE 19 26 10 14 1012.8 - 0.0
24/03:30pm 29.9 26.4 8.9 27 11.7 NNE 17 30 9 16 1012.8 - 0.0
24/03:00pm 28.6 25.4 8.3 28 11.1 ENE 15 22 8 12 1013.0 1012.9 0.0
24/02:30pm 28.7 26.4 8.9 29 10.9 NE 11 19 6 10 1013.0 - 0.0
24/02:00pm 29.6 27.6 10.2 30 11.0 NNE 11 19 6 10 1013.2 - 0.0
24/01:30pm 29.6 27.5 9.7 29 11.2 N 11 22 6 12 1013.7 - 0.0
24/01:00pm 28.8 28.1 11.4 34 10.0 N 6 11 3 6 1014.2 - 0.0
24/12:30pm 29.5 26.7 11.5 33 10.4 N 17 26 9 14 1014.8 - 0.0
24/12:00pm 29.0 27.9 12.0 35 9.9 NE 9 20 5 11 1015.4 1015.3 0.0
24/11:30am 27.6 27.3 12.8 40 8.7 ESE 6 11 3 6 1015.8 - 0.0
24/11:00am 25.6 25.4 14.7 51 6.5 S 9 13 5 7 1016.3 - 0.0
24/10:30am 24.0 24.1 15.5 59 5.1 S 9 13 5 7 1016.6 - 0.0
24/10:00am 23.0 23.3 16.1 65 4.2 S 9 17 5 9 1016.8 - 0.0
24/09:30am 21.2 22.2 16.4 74 2.9 SSW 6 11 3 6 1016.8 - 0.0
24/09:00am 18.5 19.2 16.1 86 1.4 WSW 7 11 4 6 1016.8 1016.7 0.0
24/08:30am 16.7 17.7 15.4 92 0.8 WSW 4 7 2 4 1016.6 - 0.0
24/08:00am 15.7 16.4 14.4 92 0.7 WSW 4 6 2 3 1016.1 - 0.0
24/07:30am 15.6 15.6 13.6 88 1.1 W 6 9 3 5 1015.8 - 0.0
24/07:00am 15.8 15.4 12.4 80 1.9 WSW 6 7 3 4 1015.4 - 0.0
24/06:30am 15.6 15.3 11.4 76 2.3 SW 4 7 2 4 1015.1 - 0.0
24/06:00am 15.0 14.6 11.2 78 2.0 SW 4 7 2 4 1015.0 1014.9 0.0
24/05:30am 14.4 13.5 11.2 81 1.7 WSW 7 9 4 5 1014.9 - 0.0
24/05:00am 13.2 11.7 10.7 85 1.3 WSW 9 11 5 6 1014.5 - 0.0
24/04:30am 11.7 11.2 7.8 77 1.9 CALM 0 0 0 0 1014.3 - 0.0
24/04:00am 11.9 11.4 8.0 77 1.9 CALM 0 0 0 0 1014.2 - 0.0
24/03:30am 11.8 10.2 7.9 77 1.9 SE 6 7 3 4 1014.2 - 0.0
24/03:00am 11.9 10.7 8.2 78 1.8 SE 4 7 2 4 1014.2 1014.1 0.0
24/02:30am 12.7 12.6 9.3 80 1.7 CALM 0 0 0 0 1014.2 - 0.0
24/02:00am 13.5 13.5 9.7 78 1.9 CALM 0 0 0 0 1014.4 - 0.0
24/01:30am 12.5 10.9 8.6 77 1.9 SE 7 7 4 4 1014.5 - 0.0
24/01:00am 14.0 12.6 10.8 81 1.7 NNE 9 11 5 6 1014.3 - 0.0
24/12:30am 14.0 14.1 10.2 78 2.0 CALM 0 0 0 0 1014.6 - 0.0
24/12:00am 14.2 13.9 8.6 69 2.8 NE 0 0 0 0 1014.8 1014.7 0.0
 
Date/Time
CST
Temp
°C
App
Temp
°C
Dew
Point
Rel
Hum
%
Delta-T
°C
Wind Press
QNH
hPa
Press
MSL
hPa
Rain
since 9 am
mm
Dir
 
Spd
km/h
Gust
km/h
Spd
kts
Gust
kts
23/11:30pm 14.9 15.0 10.1 73 2.5 CALM 0 0 0 0 1014.8 - 0.0
23/11:00pm 14.8 14.6 9.2 69 2.9 CALM 0 0 0 0 1014.8 - 0.0
23/10:30pm 15.7 14.7 8.9 64 3.5 NE 4 7 2 4 1014.7 - 0.0
23/10:00pm 18.3 17.8 12.5 69 3.2 NE 7 9 4 5 1014.6 - 0.0
23/09:30pm 18.6 18.0 12.4 67 3.5 NNE 7 9 4 5 1014.6 - 0.0
23/09:00pm 19.1 18.4 12.1 64 3.9 NNE 7 9 4 5 1014.5 1014.4 0.0
23/08:30pm 19.9 19.0 11.4 58 4.7 NNE 7 9 4 5 1014.3 - 0.0
23/08:00pm 21.0 20.3 11.3 54 5.4 NNE 6 7 3 4 1014.1 - 0.0
23/07:30pm 21.4 20.4 10.9 51 5.8 N 7 9 4 5 1013.8 - 0.0
23/07:00pm 22.3 20.8 10.5 47 6.5 NNE 9 11 5 6 1013.5 - 0.0
23/06:30pm 23.6 21.7 10.6 44 7.2 NNE 11 15 6 8 1013.3 - 0.0
23/06:00pm 25.1 22.8 9.0 36 8.7 NNE 11 15 6 8 1013.0 1012.9 0.0
23/05:30pm 26.7 23.5 8.6 32 9.8 NNE 15 20 8 11 1012.8 - 0.0
23/05:00pm 27.7 24.2 8.6 30 10.4 N 17 24 9 13 1012.6 - 0.0
23/04:30pm 28.5 24.3 8.2 28 11.1 N 20 26 11 14 1012.4 - 0.0
23/04:00pm 29.6 27.2 6.9 24 12.2 NNE 9 22 5 12 1012.1 - 0.0
23/03:30pm 30.4 27.8 4.2 19 13.5 E 7 13 4 7 1012.0 - 0.0
23/03:00pm 30.7 28.1 4.4 19 13.6 E 7 13 4 7 1012.3 1012.2 0.0
23/02:30pm 29.7 26.2 3.6 19 13.2 NNE 11 19 6 10 1012.5 - 0.0
23/02:00pm 30.4 27.4 4.2 19 13.5 W 9 13 5 7 1013.0 - 0.0
23/01:30pm 30.0 26.6 3.9 19 13.3 NNE 11 22 6 12 1013.5 - 0.0
23/01:00pm 28.8 25.3 3.6 20 12.7 N 11 17 6 9 1014.1 - 0.0
23/12:30pm 29.5 26.9 4.2 20 12.9 NNE 7 20 4 11 1014.7 - 0.0
23/12:00pm 28.5 24.6 -4.8 11 14.4 NNE 7 13 4 7 1015.3 1015.2 0.0
23/11:30am 27.7 23.7 -8.0 9 14.5 SW 6 13 3 7 1015.8 - 0.0
23/11:00am 26.8 23.1 -2.9 14 13.1 SW 7 13 4 7 1016.4 - 0.0
23/10:30am 25.1 21.6 -1.6 17 11.9 SW 7 13 4 7 1016.8 - 0.0
23/10:00am 23.9 20.1 -0.4 20 11.0 SSW 9 13 5 7 1017.0 - 0.0
23/09:30am 21.8 17.8 0.4 24 9.7 S 11 15 6 8 1017.3 - 0.0
23/09:00am 19.8 16.2 0.8 28 8.5 S 9 13 5 7 1017.3 1017.2 0.0
23/08:30am 16.6 13.6 1.9 37 6.6 SSW 7 9 4 5 1017.3 - 0.0
23/08:00am 12.8 11.4 3.5 53 4.2 CALM 0 0 0 0 1017.1 - 0.0
23/07:30am 9.2 7.8 3.8 69 2.4 CALM 0 0 0 0 1016.8 - 0.0
23/07:00am 7.2 5.6 2.7 73 1.9 CALM 0 0 0 0 1016.4 - 0.0
23/06:30am 8.0 6.4 2.7 69 2.2 CALM 0 0 0 0 1016.2 - 0.0
23/06:00am 7.5 5.9 2.4 70 2.1 CALM 0 0 0 0 1015.9 1015.8 0.0
23/05:30am 7.1 5.0 2.0 70 2.1 NNE 2 7 1 4 1015.9 - 0.0
23/05:00am 7.6 5.3 2.7 71 2.0 NNE 4 7 2 4 1015.5 - 0.0
23/04:30am 8.1 6.6 3.2 71 2.1 CALM 0 0 0 0 1015.6 - 0.0
23/04:00am 8.4 7.0 3.5 71 2.1 CALM 0 6 0 3 1015.4 - 0.0
23/03:30am 7.9 5.2 2.6 69 2.2 NNE 6 7 3 4 1015.7 - 0.0
23/03:00am 8.6 5.9 2.4 65 2.6 NNE 6 7 3 4 1015.9 1015.8 0.0
23/02:30am 8.8 7.1 1.7 61 2.9 CALM 0 0 0 0 1015.9 - 0.0
23/02:00am 8.8 7.2 2.2 63 2.8 CALM 0 0 0 0 1015.8 - 0.0
23/01:30am 10.1 8.5 2.2 58 3.3 CALM 0 6 0 3 1015.8 - 0.0
23/01:00am 10.0 8.3 1.9 57 3.4 CALM 0 0 0 0 1015.8 - 0.0
23/12:30am 10.1 8.3 1.5 55 3.6 CALM 0 0 0 0 1015.7 - 0.0
23/12:00am 10.8 9.1 2.1 55 3.7 CALM 0 0 0 0 1015.7 1015.6 0.0
 
Date/Time
CST
Temp
°C
App
Temp
°C
Dew
Point
Rel
Hum
%
Delta-T
°C
Wind Press
QNH
hPa
Press
MSL
hPa
Rain
since 9 am
mm
Dir
 
Spd
km/h
Gust
km/h
Spd
kts
Gust
kts
22/11:30pm 11.7 10.0 1.9 51 4.2 CALM 0 0 0 0 1015.7 - 0.0
22/11:00pm 12.3 10.4 0.7 45 4.8 CALM 0 0 0 0 1015.7 - 0.0
22/10:30pm 13.4 11.6 1.1 43 5.2 CALM 0 0 0 0 1015.8 - 0.0
22/10:00pm 14.1 11.4 0.0 38 5.9 NNE 4 7 2 4 1015.7 - 0.0
22/09:30pm 16.9 13.6 0.1 32 7.2 NNE 7 9 4 5 1015.5 - 0.0
22/09:00pm 17.8 14.1 0.0 30 7.7 NNE 9 9 5 5 1015.5 1015.4 0.0
22/08:30pm 18.9 15.2 0.0 28 8.3 NNE 9 11 5 6 1015.6 - 0.0
22/08:00pm 19.6 15.5 0.1 27 8.6 NNE 11 13 6 7 1015.4 - 0.0
22/07:30pm 20.3 15.9 -2.1 22 9.5 NE 11 15 6 8 1015.3 - 0.0
22/07:00pm 21.7 16.9 -2.9 19 10.4 NE 13 19 7 10 1015.0 - 0.0
22/06:30pm 21.9 17.4 -3.5 18 10.6 NNE 11 15 6 8 1014.5 - 0.0
22/06:00pm 24.1 18.6 -5.0 14 12.1 NNE 15 20 8 11 1014.4 1014.3 0.0
22/05:30pm 26.1 19.9 -4.4 13 13.1 NE 19 28 10 15 1014.0 - 0.0
22/05:00pm 27.4 22.2 -2.4 14 13.4 NE 15 22 8 12 1014.0 - 0.0
22/04:30pm 26.5 20.5 -3.1 14 13.0 NE 19 28 10 15 1014.0 - 0.0
22/04:00pm 29.9 25.0 -3.7 11 15.0 ENE 13 17 7 9 1013.9 - 0.0
22/03:30pm 29.7 24.6 -5.1 10 15.2 ENE 13 22 7 12 1014.1 - 0.0
22/03:00pm 30.5 25.5 -4.5 10 15.5 E 13 24 7 13 1014.3 1014.2 0.0
22/02:30pm 29.9 24.6 -3.7 11 15.0 NE 15 24 8 13 1014.7 - 0.0
22/02:00pm 29.6 24.1 -5.2 10 15.1 SE 15 22 8 12 1015.1 - 0.0
22/01:30pm 30.0 24.6 -4.9 10 15.3 E 15 24 8 13 1015.5 - 0.0
22/01:00pm 29.1 24.2 -3.2 12 14.5 E 13 22 7 12 1016.2 - 0.0
22/12:30pm 29.2 23.4 -4.3 11 14.7 ESE 17 26 9 14 1016.9 - 0.0
22/12:00pm 28.6 23.7 -3.6 12 14.3 ESE 13 20 7 11 1017.6 1017.5 0.0
22/11:30am 28.9 22.9 -3.3 12 14.4 ESE 19 24 10 13 1018.3 - 0.0
22/11:00am 26.5 22.9 3.1 22 11.5 ESE 11 22 6 12 1018.9 - 0.0
22/10:30am 26.3 22.8 5.3 26 10.7 SSE 13 20 7 11 1019.3 - 0.0
22/10:00am 23.4 21.4 8.7 39 7.9 S 9 13 5 7 1019.5 - 0.0
22/09:30am 22.0 20.2 9.5 45 6.7 S 9 13 5 7 1019.6 - 0.0
22/09:00am 20.1 17.9 9.4 50 5.7 S 11 15 6 8 1019.6 1019.6 0.0
22/08:30am 18.5 17.0 9.3 55 4.8 S 7 11 4 6 1019.4 - 0.0
22/08:00am 16.2 15.4 10.9 71 2.8 S 6 9 3 5 1019.1 - 0.0
22/07:30am 12.8 11.8 10.2 84 1.3 SW 6 6 3 3 1018.5 - 0.0
22/07:00am 11.3 9.9 8.7 84 1.3 SW 6 7 3 4 1018.2 - 0.0
22/06:30am 11.9 10.3 8.2 78 1.8 SW 6 7 3 4 1017.8 - 0.0
22/06:00am 13.3 12.9 8.2 71 2.5 CALM 0 0 0 0 1017.6 1017.5 0.0
22/05:30am 15.5 15.2 8.5 63 3.5 CALM 0 0 0 0 1017.4 - 0.0
22/05:00am 15.6 15.2 8.4 62 3.6 CALM 0 0 0 0 1017.4 - 0.0
22/04:30am 15.2 14.8 8.2 63 3.5 CALM 0 0 0 0 1017.3 - 0.0
22/04:00am 14.8 14.4 8.1 64 3.4 CALM 0 0 0 0 1017.3 - 0.0
22/03:30am 14.0 13.5 8.0 67 3.0 CALM 0 0 0 0 1017.4 - 0.0
22/03:00am 13.0 12.5 7.7 70 2.6 CALM 0 0 0 0 1017.5 1017.4 0.0
22/02:30am 12.0 11.3 7.1 72 2.4 CALM 0 0 0 0 1017.7 - 0.0
22/02:00am 11.0 10.0 5.5 69 2.5 CALM 0 0 0 0 1017.8 - 0.0
22/01:30am 11.6 10.5 5.3 65 2.9 CALM 0 0 0 0 1017.7 - 0.0
22/01:00am 11.9 9.8 6.0 67 2.8 WNW 6 7 3 4 1017.7 - 0.0
22/12:30am 12.4 10.8 6.2 66 2.9 E 4 6 2 3 1017.9 - 0.0
22/12:00am 13.3 12.7 7.3 67 2.9 CALM 0 0 0 0 1018.0 1018.0 0.0
 
Date/Time
CST
Temp
°C
App
Temp
°C
Dew
Point
Rel
Hum
%
Delta-T
°C
Wind Press
QNH
hPa
Press
MSL
hPa
Rain
since 9 am
mm
Dir
 
Spd
km/h
Gust
km/h
Spd
kts
Gust
kts
21/11:30pm 13.4 12.6 6.5 63 3.3 CALM 0 0 0 0 1018.3 - 0.0
21/11:00pm 14.1 13.1 5.7 57 4.0 CALM 0 0 0 0 1018.3 - 0.0
21/10:30pm 14.8 14.2 7.4 61 3.7 CALM 0 0 0 0 1018.3 - 0.0
21/10:00pm 15.4 14.9 7.7 60 3.8 CALM 0 0 0 0 1018.2 - 0.0
21/09:30pm 16.8 16.5 8.8 59 4.1 CALM 0 0 0 0 1018.1 - 0.0
21/09:00pm 17.9 17.1 9.5 58 4.4 E 4 7 2 4 1018.0 1018.0 0.0
21/08:30pm 19.0 17.6 8.9 52 5.3 ENE 6 7 3 4 1017.8 - 0.0

Other Formats:

Comma delimited format used in spreadsheet applications
http://www.bom.gov.au/fwo/IDD60801/IDD60801.94152.axf

JavaScript Object Notation format (JSON) in row-major order
http://www.bom.gov.au/fwo/IDD60801/IDD60801.94152.json